createdAt,value
2017-07-26T00:06:40.407Z,15.3
2017-07-26T00:16:54.424Z,15.5
2017-07-26T00:27:08.983Z,15.5
2017-07-26T00:37:23.953Z,15.6
2017-07-26T00:47:39.315Z,15.6
2017-07-26T00:57:54.201Z,15.5
2017-07-26T01:08:08.345Z,15.5
2017-07-26T01:18:23.309Z,15.6
2017-07-26T01:28:38.502Z,15.5
2017-07-26T01:38:53.639Z,15.5
2017-07-26T01:49:08.087Z,15.5
2017-07-26T01:59:23.813Z,15.5
2017-07-26T02:09:38.611Z,15.5
2017-07-26T02:19:53.483Z,15.5
2017-07-26T02:30:09.230Z,15.6
2017-07-26T02:40:23.861Z,15.7
2017-07-26T02:50:38.486Z,15.6
2017-07-26T03:00:52.334Z,15.5
2017-07-26T03:11:06.900Z,15.7
2017-07-26T03:21:21.197Z,15.7
2017-07-26T03:31:36.356Z,15.8
2017-07-26T03:41:50.900Z,15.8
2017-07-26T03:52:05.677Z,15.8
2017-07-26T04:02:20.359Z,15.7
2017-07-26T04:12:35.896Z,15.8
2017-07-26T04:22:49.856Z,15.8
2017-07-26T04:33:03.992Z,15.9
2017-07-26T04:43:19.117Z,16
2017-07-26T04:53:34.550Z,15.9
2017-07-26T05:03:48.283Z,15.8
2017-07-26T05:14:03.924Z,15.8
2017-07-26T05:24:19.526Z,15.7
2017-07-26T05:34:34.688Z,15.8
2017-07-26T05:44:50.035Z,16.2
2017-07-26T05:55:04.066Z,16.1
2017-07-26T06:05:19.021Z,16.3
2017-07-26T06:15:33.824Z,16.6
2017-07-26T06:25:48.699Z,16.6
2017-07-26T06:36:03.098Z,17.2
2017-07-26T06:46:18.467Z,17.7
2017-07-26T06:56:33.249Z,18
2017-07-26T07:06:48.141Z,18.3
2017-07-26T07:17:02.661Z,18.2
2017-07-26T07:27:16.744Z,20.1
2017-07-26T07:37:31.455Z,20.4
2017-07-26T07:47:47.273Z,21.1
2017-07-26T07:58:02.304Z,21
2017-07-26T08:08:17.861Z,20.9
2017-07-26T08:18:33.001Z,21.9
2017-07-26T08:28:46.978Z,22.6
2017-07-26T08:39:01.891Z,20.7
2017-07-26T08:49:15.844Z,21.9
2017-07-26T08:59:31.290Z,20.7
2017-07-26T09:09:46.212Z,23.3
2017-07-26T09:20:01.802Z,21.5
2017-07-26T09:30:16.001Z,23.1
2017-07-26T09:40:30.020Z,22.4
2017-07-26T09:50:44.980Z,23.7
2017-07-26T10:01:00.013Z,22.1
2017-07-26T10:11:15.852Z,23.4
2017-07-26T10:21:30.442Z,23.5
2017-07-26T10:31:44.380Z,23.9
2017-07-26T10:41:58.937Z,22.9
2017-07-26T10:52:14.719Z,22.6
2017-07-26T11:02:30.587Z,23.8
2017-07-26T11:12:45.860Z,23.7
2017-07-26T11:23:00.033Z,23.7
2017-07-26T11:33:15.495Z,24.3
2017-07-26T11:43:30.852Z,23.4
2017-07-26T11:53:46.426Z,24.3
2017-07-26T12:04:00.506Z,24.1
2017-07-26T12:14:15.499Z,23.5
2017-07-26T12:24:30.647Z,24
2017-07-26T12:34:45.585Z,24.1
2017-07-26T12:44:59.543Z,24.1
2017-07-26T12:55:14.444Z,24.7
2017-07-26T13:05:30.167Z,25.2
2017-07-26T13:15:45.440Z,24.8
2017-07-26T13:26:00.041Z,24.4
2017-07-26T13:36:15.849Z,24.7
2017-07-26T13:46:30.854Z,24.7
2017-07-26T13:56:46.294Z,25.2
2017-07-26T14:07:00.998Z,25.1
2017-07-26T14:17:15.014Z,24.5
2017-07-26T14:27:29.946Z,25.5
2017-07-26T14:37:44.085Z,24.3
2017-07-26T14:47:58.000Z,23.9
2017-07-26T14:58:13.039Z,24.8
2017-07-26T15:08:27.771Z,24.7
2017-07-26T15:18:43.256Z,24.1
2017-07-26T15:28:58.628Z,24.7
2017-07-26T15:39:13.790Z,24.6
2017-07-26T15:49:28.130Z,24.7
2017-07-26T15:59:43.737Z,25.5
2017-07-26T16:09:58.277Z,24.6
2017-07-26T16:20:13.456Z,24.7
2017-07-26T16:30:29.331Z,24.6
2017-07-26T16:40:44.351Z,24.1
2017-07-26T16:50:59.848Z,24.4
2017-07-26T17:01:14.022Z,24.3
2017-07-26T17:11:28.884Z,23.9
2017-07-26T17:21:43.776Z,23.6
2017-07-26T17:31:58.516Z,23.4
2017-07-26T17:42:13.399Z,22.9
2017-07-26T17:52:28.816Z,22.6
2017-07-26T18:02:43.556Z,21.5
2017-07-26T18:12:57.461Z,21
2017-07-26T18:23:13.281Z,20.9
2017-07-26T18:33:28.562Z,20.7
2017-07-26T18:43:44.296Z,20.3
2017-07-26T18:53:59.016Z,19.8
2017-07-26T19:04:14.527Z,19.4
2017-07-26T19:14:29.017Z,19.1
2017-07-26T19:24:43.236Z,18.9
2017-07-26T19:34:57.788Z,18.7
2017-07-26T19:45:13.139Z,18.5
2017-07-26T19:55:27.645Z,18.8
2017-07-26T20:05:41.507Z,18.7
2017-07-26T20:15:56.828Z,18.1
2017-07-26T20:26:11.692Z,17.3
2017-07-26T20:36:26.084Z,16.9
2017-07-26T20:46:40.210Z,16.9
2017-07-26T20:56:56.318Z,16.4
2017-07-26T21:07:09.665Z,16.5
2017-07-26T21:17:24.480Z,16.3
2017-07-26T21:27:39.720Z,16.5
2017-07-26T21:37:54.058Z,17
2017-07-26T21:48:07.888Z,17.8
2017-07-26T21:58:22.694Z,18.4
2017-07-26T22:08:37.923Z,18.7
2017-07-26T22:18:52.194Z,18.9
2017-07-26T22:29:06.024Z,19
2017-07-26T22:39:21.869Z,19.1
2017-07-26T22:49:36.326Z,19
2017-07-26T22:59:51.503Z,19
2017-07-26T23:10:07.063Z,18.9
2017-07-26T23:20:21.008Z,19
2017-07-26T23:30:35.733Z,19.1
2017-07-26T23:40:49.669Z,19.2
2017-07-26T23:51:04.433Z,19.1
